createdAt,value
2018-04-29T00:00:09.636Z,980.07
2018-04-29T00:01:09.826Z,980.06
2018-04-29T00:02:10.028Z,980.03
2018-04-29T00:03:10.228Z,979.99
2018-04-29T00:04:10.403Z,979.94
2018-04-29T00:05:10.609Z,979.94
2018-04-29T00:06:10.816Z,979.91
2018-04-29T00:07:11.012Z,979.96
2018-04-29T00:08:11.198Z,979.93
2018-04-29T00:09:11.382Z,979.88
2018-04-29T00:10:11.562Z,979.83
2018-04-29T00:11:11.751Z,979.86
2018-04-29T00:12:11.944Z,979.83
2018-04-29T00:13:12.158Z,979.82
2018-04-29T00:14:12.359Z,979.82
2018-04-29T00:15:12.544Z,979.77
2018-04-29T00:16:12.725Z,979.75
2018-04-29T00:17:12.913Z,979.74
2018-04-29T00:18:13.096Z,979.79
2018-04-29T00:19:13.298Z,979.73
2018-04-29T00:20:13.505Z,979.69
2018-04-29T00:21:13.719Z,979.64
2018-04-29T00:22:13.903Z,979.61
2018-04-29T00:24:45.723Z,979.68
2018-04-29T00:25:45.898Z,979.69
2018-04-29T00:26:46.120Z,979.67
2018-04-29T00:27:46.293Z,979.69
2018-04-29T00:28:46.496Z,979.71
2018-04-29T00:29:46.693Z,979.76
2018-04-29T00:30:46.881Z,979.81
2018-04-29T00:31:47.091Z,979.81
2018-04-29T00:32:47.305Z,979.76
2018-04-29T00:33:47.502Z,979.71
2018-04-29T00:34:47.714Z,979.72
2018-04-29T00:35:47.971Z,979.70
2018-04-29T00:36:48.107Z,979.78
2018-04-29T00:37:48.332Z,979.79
2018-04-29T00:38:48.531Z,979.80
2018-04-29T00:39:48.708Z,979.83
2018-04-29T00:40:48.909Z,979.85
2018-04-29T00:41:49.130Z,979.85
2018-04-29T00:42:49.312Z,979.90
2018-04-29T00:43:49.496Z,979.88
2018-04-29T00:44:49.704Z,979.82
2018-04-29T00:45:49.914Z,979.80
2018-04-29T00:46:50.123Z,979.82
2018-04-29T00:47:50.315Z,979.81
2018-04-29T00:48:50.507Z,979.84
2018-04-29T00:49:50.711Z,979.83
2018-04-29T00:50:50.924Z,979.82
2018-04-29T00:51:51.112Z,979.83
2018-04-29T00:52:51.307Z,979.88
2018-04-29T00:53:51.514Z,979.89
2018-04-29T00:54:51.695Z,979.92
2018-04-29T00:55:51.933Z,979.93
2018-04-29T00:56:52.140Z,979.96
2018-04-29T00:57:52.343Z,979.99
2018-04-29T00:58:52.552Z,979.97
2018-04-29T00:59:52.742Z,979.96
2018-04-29T01:00:52.925Z,979.96
2018-04-29T01:01:53.112Z,979.94
2018-04-29T01:02:53.325Z,979.97
2018-04-29T01:05:25.149Z,979.88
2018-04-29T01:06:25.313Z,979.89
2018-04-29T01:07:25.524Z,979.88
2018-04-29T01:08:25.845Z,979.87
2018-04-29T01:09:25.943Z,979.87
2018-04-29T01:10:26.161Z,979.86
2018-04-29T01:11:26.346Z,979.86
2018-04-29T01:12:26.522Z,979.85
2018-04-29T01:13:26.727Z,979.86
2018-04-29T01:14:26.932Z,979.91
2018-04-29T01:15:27.122Z,979.87
2018-04-29T01:16:27.325Z,979.86
2018-04-29T01:17:27.508Z,979.84
2018-04-29T01:18:27.718Z,979.86
2018-04-29T01:19:27.913Z,979.90
2018-04-29T01:22:01.755Z,979.92
2018-04-29T01:23:00.177Z,979.94
2018-04-29T01:24:00.356Z,979.93
2018-04-29T01:25:00.566Z,979.96
2018-04-29T01:26:00.773Z,980.00
2018-04-29T01:27:00.966Z,979.95
2018-04-29T01:28:01.166Z,980.01
2018-04-29T01:29:01.350Z,979.99
2018-04-29T01:30:01.568Z,979.99
2018-04-29T01:31:01.763Z,979.99
2018-04-29T01:32:01.976Z,979.97
2018-04-29T01:33:02.165Z,979.98
2018-04-29T01:34:02.363Z,980.01
2018-04-29T01:35:02.541Z,980.01
2018-04-29T01:36:02.752Z,980.02
2018-04-29T01:37:02.947Z,980.00
2018-04-29T01:38:03.132Z,980.04
2018-04-29T01:39:03.318Z,980.07
2018-04-29T01:40:03.522Z,980.02
2018-04-29T01:41:03.704Z,980.00
2018-04-29T01:42:03.901Z,979.95
2018-04-29T01:43:04.104Z,979.93
2018-04-29T01:45:36.220Z,979.79
2018-04-29T01:46:36.393Z,979.75
2018-04-29T01:47:36.592Z,979.75
2018-04-29T01:48:36.802Z,979.78
2018-04-29T01:49:37.001Z,979.80
2018-04-29T01:50:37.182Z,979.88
2018-04-29T01:51:37.388Z,979.84
2018-04-29T01:52:37.575Z,979.89
2018-04-29T01:53:37.786Z,979.88
2018-04-29T01:54:37.963Z,979.88
2018-04-29T01:55:38.156Z,979.86
2018-04-29T01:56:38.344Z,979.82
2018-04-29T01:57:38.551Z,979.83
2018-04-29T01:58:38.757Z,979.84
2018-04-29T01:59:38.957Z,979.84
2018-04-29T02:00:39.144Z,979.82
2018-04-29T02:01:39.350Z,979.83
2018-04-29T02:02:39.552Z,979.80
2018-04-29T02:03:39.744Z,979.78
2018-04-29T02:04:39.933Z,979.77
2018-04-29T02:05:40.135Z,979.79
2018-04-29T02:06:40.334Z,979.82
2018-04-29T02:07:40.533Z,979.81
2018-04-29T02:08:40.745Z,979.80
2018-04-29T02:11:12.561Z,979.78
2018-04-29T02:12:12.736Z,979.78
2018-04-29T02:13:12.925Z,979.76
2018-04-29T02:14:13.109Z,979.77
2018-04-29T02:15:13.293Z,979.72
2018-04-29T02:16:13.473Z,979.69
2018-04-29T02:17:13.685Z,979.73
2018-04-29T02:18:13.893Z,979.70
2018-04-29T02:19:14.106Z,979.73
2018-04-29T02:20:14.297Z,979.71
2018-04-29T02:21:14.494Z,979.68
2018-04-29T02:22:14.692Z,979.68
2018-04-29T02:23:14.873Z,979.64
2018-04-29T02:24:15.067Z,979.63
2018-04-29T02:25:15.260Z,979.67
2018-04-29T02:26:15.460Z,979.70
2018-04-29T02:27:15.657Z,979.69
2018-04-29T02:28:15.863Z,979.71
2018-04-29T02:29:16.101Z,979.73
2018-04-29T02:30:16.287Z,979.72
2018-04-29T02:31:16.512Z,979.75
2018-04-29T02:32:16.665Z,979.72
2018-04-29T02:33:16.849Z,979.74
2018-04-29T02:34:17.042Z,979.75
2018-04-29T02:35:17.251Z,979.76
2018-04-29T02:36:17.453Z,979.76
2018-04-29T02:37:17.636Z,979.75
2018-04-29T02:38:17.835Z,979.76
2018-04-29T02:39:18.050Z,979.75
2018-04-29T02:40:18.287Z,979.71
2018-04-29T02:41:18.492Z,979.70
2018-04-29T02:42:18.692Z,979.68
2018-04-29T02:43:18.903Z,979.67
2018-04-29T02:44:19.085Z,979.68
2018-04-29T02:45:19.274Z,979.68
2018-04-29T02:46:19.453Z,979.68
2018-04-29T02:47:19.646Z,979.76
2018-04-29T02:48:19.825Z,979.73
2018-04-29T02:49:20.034Z,979.73
2018-04-29T02:50:20.215Z,979.70
2018-04-29T02:51:20.414Z,979.71
2018-04-29T02:52:20.625Z,979.65
2018-04-29T02:53:20.827Z,979.67
2018-04-29T02:54:21.048Z,979.63
2018-04-29T02:55:21.245Z,979.60
2018-04-29T02:56:21.425Z,979.60
2018-04-29T02:57:21.610Z,979.55
2018-04-29T02:58:21.805Z,979.56
2018-04-29T02:59:22.004Z,979.54
2018-04-29T03:00:22.194Z,979.53
2018-04-29T03:01:22.425Z,979.51
2018-04-29T03:02:22.623Z,979.51
2018-04-29T03:03:22.808Z,979.45
2018-04-29T03:04:23.013Z,979.47
2018-04-29T03:05:23.195Z,979.46
2018-04-29T03:06:23.393Z,979.45
2018-04-29T03:07:23.590Z,979.42
2018-04-29T03:08:23.796Z,979.39
2018-04-29T03:09:23.992Z,979.33
2018-04-29T03:10:24.193Z,979.31
2018-04-29T03:11:24.393Z,979.32
2018-04-29T03:12:24.587Z,979.28
2018-04-29T03:13:24.796Z,979.22
2018-04-29T03:14:25.000Z,979.22
2018-04-29T03:15:25.203Z,979.18
2018-04-29T03:16:25.393Z,979.17
2018-04-29T03:17:25.574Z,979.15
2018-04-29T03:18:25.765Z,979.17
2018-04-29T03:19:25.975Z,979.13
2018-04-29T03:20:26.174Z,979.10
2018-04-29T03:21:26.371Z,979.10
2018-04-29T03:22:26.576Z,979.03
2018-04-29T03:23:26.767Z,979.01
2018-04-29T03:24:26.964Z,979.00
2018-04-29T03:25:27.153Z,978.98
2018-04-29T03:26:27.375Z,979.02
2018-04-29T03:27:27.567Z,978.95
2018-04-29T03:28:27.744Z,978.93
2018-04-29T03:29:27.945Z,978.94
2018-04-29T03:30:28.210Z,978.94
2018-04-29T03:31:28.266Z,978.93
2018-04-29T03:32:28.471Z,978.90
2018-04-29T03:33:28.677Z,978.95
2018-04-29T03:34:28.862Z,978.96
2018-04-29T03:35:29.062Z,978.97
2018-04-29T03:36:29.270Z,978.92
2018-04-29T03:37:29.454Z,978.94
2018-04-29T03:38:29.646Z,978.89
2018-04-29T03:39:29.842Z,978.89
2018-04-29T03:42:04.675Z,978.89
2018-04-29T03:43:02.096Z,978.88
2018-04-29T03:44:02.295Z,978.88
2018-04-29T03:45:02.511Z,978.85
2018-04-29T03:46:02.686Z,978.84
2018-04-29T03:47:02.890Z,978.85
2018-04-29T03:48:03.095Z,978.81
2018-04-29T03:49:03.293Z,978.79
2018-04-29T03:50:03.493Z,978.79
2018-04-29T03:51:03.678Z,978.75
2018-04-29T03:52:03.848Z,978.78
2018-04-29T03:53:04.066Z,978.70
2018-04-29T03:54:04.263Z,978.70
2018-04-29T03:55:04.467Z,978.72
2018-04-29T03:56:04.687Z,978.69
2018-04-29T03:57:04.851Z,978.67
2018-04-29T03:58:05.062Z,978.71
2018-04-29T03:59:05.242Z,978.72
2018-04-29T04:00:05.435Z,978.75
2018-04-29T04:01:05.621Z,978.74
2018-04-29T04:02:05.842Z,978.75
2018-04-29T04:03:06.036Z,978.77
2018-04-29T04:04:06.248Z,978.76
2018-04-29T04:05:06.533Z,978.74
2018-04-29T04:06:06.573Z,978.78
2018-04-29T04:07:06.781Z,978.80
2018-04-29T04:08:06.985Z,978.82
2018-04-29T04:09:07.192Z,978.84
2018-04-29T04:10:07.383Z,978.80
2018-04-29T04:11:07.574Z,978.80
2018-04-29T04:12:07.792Z,978.80
2018-04-29T04:13:08.001Z,978.84
2018-04-29T04:14:08.196Z,978.80
2018-04-29T04:15:08.418Z,978.81
2018-04-29T04:16:08.625Z,978.77
2018-04-29T04:17:08.818Z,978.80
2018-04-29T04:18:09.008Z,978.76
2018-04-29T04:19:09.215Z,978.74
2018-04-29T04:20:09.421Z,978.67
2018-04-29T04:21:09.628Z,978.72
2018-04-29T04:22:09.839Z,978.70
2018-04-29T04:23:10.019Z,978.71
2018-04-29T04:24:10.235Z,978.70
2018-04-29T04:25:10.421Z,978.67
2018-04-29T04:26:10.608Z,978.68
2018-04-29T04:27:10.794Z,978.68
2018-04-29T04:28:10.974Z,978.67
2018-04-29T04:29:11.168Z,978.64
2018-04-29T04:30:11.382Z,978.60
2018-04-29T04:31:11.566Z,978.58
2018-04-29T04:32:11.751Z,978.66
2018-04-29T04:33:11.957Z,978.63
2018-04-29T04:34:12.206Z,978.66
2018-04-29T04:35:12.319Z,978.65
2018-04-29T04:36:12.507Z,978.71
2018-04-29T04:37:12.697Z,978.73
2018-04-29T04:38:12.879Z,978.70
2018-04-29T04:39:13.088Z,978.65
2018-04-29T04:40:13.291Z,978.64
2018-04-29T04:41:13.462Z,978.62
2018-04-29T04:42:13.653Z,978.60
2018-04-29T04:43:13.853Z,978.59
2018-04-29T04:44:14.034Z,978.63
2018-04-29T04:45:14.209Z,978.64
2018-04-29T04:46:14.408Z,978.67
2018-04-29T04:47:14.618Z,978.66
2018-04-29T04:48:14.803Z,978.72
2018-04-29T04:49:15.011Z,978.74
2018-04-29T04:50:15.204Z,978.83
2018-04-29T04:51:15.418Z,979.17
2018-04-29T04:52:15.642Z,979.28
2018-04-29T04:53:15.838Z,979.36
2018-04-29T04:54:16.069Z,979.62
2018-04-29T04:55:16.261Z,979.73
2018-04-29T04:56:16.478Z,979.76
2018-04-29T04:57:16.664Z,979.79
2018-04-29T04:58:16.940Z,979.85
2018-04-29T04:59:17.071Z,979.82
2018-04-29T05:00:17.271Z,979.76
2018-04-29T05:01:17.476Z,979.72
2018-04-29T05:02:17.766Z,979.70
2018-04-29T05:03:17.845Z,979.75
2018-04-29T05:04:18.052Z,979.77
2018-04-29T05:05:18.289Z,979.83
2018-04-29T05:06:18.477Z,979.84
2018-04-29T05:07:18.744Z,979.73
2018-04-29T05:08:18.866Z,979.74
2018-04-29T05:09:19.081Z,979.80
2018-04-29T05:10:19.291Z,979.72
2018-04-29T05:11:19.468Z,979.64
2018-04-29T05:12:19.659Z,979.51
2018-04-29T05:14:51.550Z,979.71
2018-04-29T05:15:51.717Z,979.83
2018-04-29T05:16:51.923Z,980.56
2018-04-29T05:17:52.274Z,981.21
2018-04-29T05:18:52.357Z,981.95
2018-04-29T05:19:52.546Z,982.54
2018-04-29T05:20:52.740Z,982.63
2018-04-29T05:21:52.934Z,982.82
2018-04-29T05:22:53.134Z,982.91
2018-04-29T05:23:53.327Z,982.81
2018-04-29T05:24:53.511Z,983.21
2018-04-29T05:25:53.695Z,983.32
2018-04-29T05:26:53.882Z,983.32
2018-04-29T05:27:54.101Z,983.39
2018-04-29T05:28:54.380Z,983.38
2018-04-29T05:29:54.452Z,983.39
2018-04-29T05:30:54.641Z,983.28
2018-04-29T05:31:54.838Z,983.25
2018-04-29T05:32:55.024Z,983.29
2018-04-29T05:33:55.239Z,983.16
2018-04-29T05:34:55.476Z,983.25
2018-04-29T05:35:55.666Z,983.32
2018-04-29T05:36:55.860Z,983.22
2018-04-29T05:37:56.072Z,983.17
2018-04-29T05:38:56.284Z,983.06
2018-04-29T05:39:56.475Z,983.02
2018-04-29T05:42:28.984Z,982.84
2018-04-29T05:43:29.153Z,982.83
2018-04-29T05:44:29.360Z,982.74
2018-04-29T05:45:29.546Z,982.71
2018-04-29T05:46:29.742Z,982.57
2018-04-29T05:47:29.932Z,982.52
2018-04-29T05:48:30.155Z,982.30
2018-04-29T05:49:30.340Z,982.14
2018-04-29T05:50:30.555Z,982.34
2018-04-29T05:51:30.767Z,982.40
2018-04-29T05:52:30.975Z,982.15
2018-04-29T05:53:31.191Z,982.00
2018-04-29T05:54:31.396Z,982.00
2018-04-29T05:55:31.609Z,981.92
2018-04-29T05:56:31.801Z,981.77
2018-04-29T05:57:32.019Z,981.71
2018-04-29T05:58:32.240Z,981.54
2018-04-29T05:59:32.438Z,981.42
2018-04-29T06:00:32.653Z,981.31
2018-04-29T06:01:32.844Z,981.18
2018-04-29T06:02:33.037Z,981.06
2018-04-29T06:03:33.249Z,980.99
2018-04-29T06:04:33.457Z,980.91
2018-04-29T06:05:33.686Z,980.76
2018-04-29T06:06:33.922Z,980.78
2018-04-29T06:07:34.075Z,980.71
2018-04-29T06:08:34.292Z,980.54
2018-04-29T06:09:34.477Z,980.47
2018-04-29T06:10:34.722Z,980.39
2018-04-29T06:11:34.937Z,980.33
2018-04-29T06:12:35.143Z,980.31
2018-04-29T06:13:35.351Z,980.31
2018-04-29T06:14:35.568Z,980.29
2018-04-29T06:15:35.778Z,980.26
2018-04-29T06:16:36.015Z,980.25
2018-04-29T06:17:36.223Z,980.21
2018-04-29T06:18:36.425Z,980.23
2018-04-29T06:19:36.616Z,979.89
2018-04-29T06:20:36.849Z,979.43
2018-04-29T06:21:37.055Z,980.13
2018-04-29T06:22:37.257Z,980.12
2018-04-29T06:23:37.538Z,980.14
2018-04-29T06:24:37.653Z,980.11
2018-04-29T06:25:37.856Z,980.08
2018-04-29T06:26:38.065Z,980.09
2018-04-29T06:27:38.289Z,980.10
2018-04-29T06:28:38.507Z,980.09
2018-04-29T06:29:38.717Z,980.08
2018-04-29T06:30:38.916Z,980.09
2018-04-29T06:31:39.117Z,980.08
2018-04-29T06:32:39.334Z,980.06
2018-04-29T06:33:39.549Z,980.04
2018-04-29T06:34:39.740Z,980.05
2018-04-29T06:35:39.943Z,980.03
2018-04-29T06:36:40.182Z,979.99
2018-04-29T06:37:40.390Z,979.94
2018-04-29T06:38:40.586Z,979.47
2018-04-29T06:39:40.787Z,979.22
2018-04-29T06:40:41.008Z,979.10
2018-04-29T06:41:41.216Z,979.01
2018-04-29T06:42:41.420Z,978.97
2018-04-29T06:43:41.617Z,978.94
2018-04-29T06:44:41.837Z,979.05
2018-04-29T06:45:42.055Z,979.11
2018-04-29T06:46:42.290Z,979.11
2018-04-29T06:47:42.508Z,979.23
2018-04-29T06:48:42.715Z,979.14
2018-04-29T06:49:42.928Z,979.14
2018-04-29T06:50:43.128Z,979.03
2018-04-29T06:51:43.342Z,979.08
2018-04-29T06:52:43.588Z,979.08
2018-04-29T06:53:43.759Z,979.19
2018-04-29T06:54:43.988Z,979.23
2018-04-29T06:55:44.193Z,980.02
2018-04-29T06:56:44.383Z,980.18
2018-04-29T06:57:44.620Z,980.45
2018-04-29T06:58:44.777Z,979.77
2018-04-29T06:59:44.995Z,979.56
2018-04-29T07:00:45.301Z,979.59
2018-04-29T07:01:45.373Z,979.90
2018-04-29T07:02:45.573Z,979.93
2018-04-29T07:03:45.807Z,980.25
2018-04-29T07:04:45.977Z,980.35
2018-04-29T07:05:46.284Z,980.40
2018-04-29T07:06:46.366Z,980.39
2018-04-29T07:07:46.568Z,980.37
2018-04-29T07:08:46.777Z,980.10
2018-04-29T07:09:46.983Z,980.28
2018-04-29T07:10:47.172Z,980.03
2018-04-29T07:11:47.384Z,979.85
2018-04-29T07:12:47.578Z,980.23
2018-04-29T07:13:47.780Z,980.41
2018-04-29T07:14:47.992Z,980.27
2018-04-29T07:15:48.213Z,980.47
2018-04-29T07:16:48.411Z,980.44
2018-04-29T07:19:24.275Z,980.49
2018-04-29T07:20:20.828Z,980.52
2018-04-29T07:21:21.020Z,980.55
2018-04-29T07:22:21.220Z,980.65
2018-04-29T07:23:21.416Z,980.58
2018-04-29T07:25:53.550Z,979.86
2018-04-29T07:26:53.733Z,979.87
2018-04-29T07:27:53.944Z,979.60
2018-04-29T07:28:54.145Z,979.58
2018-04-29T07:29:54.335Z,979.61
2018-04-29T07:30:54.535Z,979.55
2018-04-29T07:31:54.733Z,979.57
2018-04-29T07:32:54.945Z,979.68
2018-04-29T07:33:55.166Z,979.71
2018-04-29T07:34:55.364Z,979.76
2018-04-29T07:35:55.594Z,979.58
2018-04-29T07:36:55.813Z,979.58
2018-04-29T07:37:56.034Z,979.80
2018-04-29T07:38:56.242Z,979.87
2018-04-29T07:39:56.611Z,979.55
2018-04-29T07:40:56.611Z,980.47
2018-04-29T07:41:56.804Z,980.37
2018-04-29T07:42:57.006Z,980.33
2018-04-29T07:43:57.231Z,980.47
2018-04-29T07:44:57.454Z,980.44
2018-04-29T07:45:57.673Z,980.38
2018-04-29T07:46:57.914Z,980.38
2018-04-29T07:47:58.086Z,980.39
2018-04-29T07:48:58.277Z,980.30
2018-04-29T07:49:58.470Z,979.96
2018-04-29T07:50:58.698Z,979.44
2018-04-29T07:51:58.893Z,979.45
2018-04-29T07:52:59.104Z,979.36
2018-04-29T07:53:59.310Z,979.91
2018-04-29T07:54:59.563Z,980.20
2018-04-29T07:55:59.665Z,980.18
2018-04-29T07:56:59.866Z,980.26
2018-04-29T07:58:00.069Z,979.69
2018-04-29T07:59:00.292Z,980.24
2018-04-29T08:00:00.483Z,980.27
2018-04-29T08:01:00.690Z,980.29
2018-04-29T08:02:00.894Z,979.86
2018-04-29T08:03:01.113Z,979.67
2018-04-29T08:04:01.329Z,979.81
2018-04-29T08:05:01.539Z,979.68
2018-04-29T08:06:01.847Z,980.19
2018-04-29T08:07:01.941Z,979.65
2018-04-29T08:08:02.165Z,980.23
2018-04-29T08:09:02.380Z,980.15
2018-04-29T08:10:02.625Z,980.26
2018-04-29T08:11:02.851Z,979.10
2018-04-29T08:12:03.067Z,979.17
2018-04-29T08:13:03.295Z,979.41
2018-04-29T08:15:35.336Z,979.59
2018-04-29T08:16:35.341Z,979.11
2018-04-29T08:17:35.576Z,979.04
2018-04-29T08:18:35.786Z,978.98
2018-04-29T08:19:36.007Z,978.90
2018-04-29T08:20:36.202Z,978.83
2018-04-29T08:21:36.426Z,978.82
2018-04-29T08:22:36.652Z,978.78
2018-04-29T08:23:36.848Z,978.74
2018-04-29T08:24:37.050Z,978.74
2018-04-29T08:25:37.239Z,978.67
2018-04-29T08:26:37.445Z,978.64
2018-04-29T08:27:37.662Z,978.61
2018-04-29T08:28:37.874Z,978.64
2018-04-29T08:29:38.079Z,978.44
2018-04-29T08:30:38.304Z,978.41
2018-04-29T08:31:38.512Z,978.35
2018-04-29T08:32:38.733Z,978.34
2018-04-29T08:33:38.937Z,978.38
2018-04-29T08:34:39.377Z,978.36
2018-04-29T08:35:39.340Z,978.31
2018-04-29T08:36:39.539Z,978.28
2018-04-29T08:37:39.765Z,978.25
2018-04-29T08:38:39.963Z,978.26
2018-04-29T08:39:40.157Z,978.26
2018-04-29T08:40:40.357Z,978.22
2018-04-29T08:41:40.550Z,978.11
2018-04-29T08:42:40.765Z,978.08
2018-04-29T08:43:40.974Z,978.05
2018-04-29T08:44:41.171Z,978.04
2018-04-29T08:45:41.379Z,978.02
2018-04-29T08:46:41.570Z,977.97
2018-04-29T08:47:41.783Z,977.96
2018-04-29T08:48:42.045Z,977.90
2018-04-29T08:49:42.177Z,977.88
2018-04-29T08:50:42.387Z,977.88
2018-04-29T08:51:42.575Z,977.82
2018-04-29T08:52:42.766Z,977.81
2018-04-29T08:53:42.955Z,977.80
2018-04-29T08:54:43.152Z,977.86
2018-04-29T08:55:43.363Z,977.93
2018-04-29T08:56:43.592Z,977.96
2018-04-29T08:57:43.801Z,978.02
2018-04-29T08:58:43.996Z,978.07
2018-04-29T08:59:44.190Z,978.08
2018-04-29T09:00:44.413Z,978.07
2018-04-29T09:01:44.673Z,978.10
2018-04-29T09:02:44.806Z,978.14
2018-04-29T09:03:45.142Z,978.19
2018-04-29T09:04:45.217Z,978.17
2018-04-29T09:05:45.404Z,978.79
2018-04-29T09:08:18.758Z,978.40
2018-04-29T09:09:17.452Z,978.42
2018-04-29T09:10:17.747Z,978.43
2018-04-29T09:11:17.856Z,978.46
2018-04-29T09:12:18.072Z,978.46
2018-04-29T09:14:51.438Z,978.54
2018-04-29T09:15:50.308Z,978.55
2018-04-29T09:16:50.484Z,978.60
2018-04-29T09:17:50.615Z,978.67
2018-04-29T09:18:50.811Z,978.67
2018-04-29T09:19:51.018Z,978.71
2018-04-29T09:20:51.238Z,978.96
2018-04-29T09:21:51.450Z,979.23
2018-04-29T09:22:51.644Z,979.43
2018-04-29T09:23:51.856Z,979.27
2018-04-29T09:24:52.158Z,979.48
2018-04-29T09:25:52.222Z,979.24
2018-04-29T09:26:52.413Z,979.25
2018-04-29T09:27:52.631Z,979.62
2018-04-29T09:28:52.845Z,979.60
2018-04-29T09:29:53.065Z,979.62
2018-04-29T09:30:53.277Z,979.62
2018-04-29T09:31:53.500Z,979.21
2018-04-29T09:32:53.711Z,979.20
2018-04-29T09:33:53.933Z,979.10
2018-04-29T09:34:54.146Z,979.12
2018-04-29T09:35:54.366Z,979.12
2018-04-29T09:36:54.590Z,979.11
2018-04-29T09:37:54.792Z,979.47
2018-04-29T09:38:55.005Z,979.47
2018-04-29T09:39:55.209Z,979.52
2018-04-29T09:40:55.401Z,979.58
2018-04-29T09:41:55.597Z,979.56
2018-04-29T09:42:55.792Z,979.58
2018-04-29T09:43:56.016Z,979.61
2018-04-29T09:44:56.218Z,979.58
2018-04-29T09:45:56.418Z,979.62
2018-04-29T09:46:56.624Z,979.63
2018-04-29T09:47:56.833Z,979.60
2018-04-29T09:48:57.067Z,979.51
2018-04-29T09:49:57.282Z,979.57
2018-04-29T09:50:57.509Z,979.44
2018-04-29T09:51:57.741Z,979.46
2018-04-29T09:52:57.939Z,979.34
2018-04-29T09:53:58.149Z,979.54
2018-04-29T09:54:58.403Z,979.22
2018-04-29T09:55:58.615Z,979.31
2018-04-29T09:56:58.814Z,979.26
2018-04-29T09:57:59.025Z,979.55
2018-04-29T09:58:59.244Z,979.38
2018-04-29T09:59:59.455Z,979.27
2018-04-29T10:00:59.685Z,979.18
2018-04-29T10:01:59.846Z,979.19
2018-04-29T10:03:00.061Z,979.15
2018-04-29T10:04:00.269Z,979.15
2018-04-29T10:05:00.472Z,979.11
2018-04-29T10:06:00.688Z,979.14
2018-04-29T10:07:00.905Z,979.08
2018-04-29T10:08:01.111Z,979.08
2018-04-29T10:09:01.333Z,979.14
2018-04-29T10:10:01.715Z,979.19
2018-04-29T10:11:01.762Z,979.16
2018-04-29T10:12:01.964Z,979.50
2018-04-29T10:14:34.137Z,979.48
2018-04-29T10:15:34.333Z,979.36
2018-04-29T10:16:34.529Z,979.36
2018-04-29T10:17:34.746Z,979.32
2018-04-29T10:18:34.968Z,979.30
2018-04-29T10:19:35.185Z,979.29
2018-04-29T10:20:35.394Z,978.87
2018-04-29T10:21:35.603Z,979.18
2018-04-29T10:22:35.791Z,979.19
2018-04-29T10:23:36.075Z,979.08
2018-04-29T10:24:36.171Z,979.17
2018-04-29T10:25:36.348Z,978.89
2018-04-29T10:26:36.578Z,978.80
2018-04-29T10:27:36.775Z,978.86
2018-04-29T10:28:36.997Z,978.83
2018-04-29T10:29:37.199Z,978.71
2018-04-29T10:30:37.405Z,978.70
2018-04-29T10:31:37.606Z,978.67
2018-04-29T10:32:37.825Z,978.61
2018-04-29T10:33:38.041Z,978.65
2018-04-29T10:34:38.264Z,978.65
2018-04-29T10:35:38.473Z,978.57
2018-04-29T10:36:38.670Z,978.58
2018-04-29T10:37:38.884Z,978.58
2018-04-29T10:38:39.114Z,978.57
2018-04-29T10:39:39.309Z,978.53
2018-04-29T10:40:39.511Z,978.55
2018-04-29T10:41:39.722Z,978.49
2018-04-29T10:42:39.925Z,978.43
2018-04-29T10:43:40.124Z,978.42
2018-04-29T10:44:40.316Z,978.40
2018-04-29T10:45:40.519Z,978.38
2018-04-29T10:46:40.742Z,978.33
2018-04-29T10:47:40.935Z,978.29
2018-04-29T10:48:41.131Z,978.27
2018-04-29T10:49:41.336Z,978.24
2018-04-29T10:50:41.555Z,978.38
2018-04-29T10:51:41.762Z,978.41
2018-04-29T10:52:41.968Z,978.69
2018-04-29T10:53:42.150Z,978.56
2018-04-29T10:54:42.359Z,978.75
2018-04-29T10:55:42.602Z,978.73
2018-04-29T10:56:42.855Z,978.65
2018-04-29T10:57:43.028Z,978.74
2018-04-29T10:58:43.336Z,978.67
2018-04-29T10:59:43.431Z,978.47
2018-04-29T11:00:43.634Z,978.55
2018-04-29T11:01:43.884Z,978.40
2018-04-29T11:02:44.108Z,978.34
2018-04-29T11:03:44.308Z,978.58
2018-04-29T11:04:44.517Z,978.53
2018-04-29T11:05:44.803Z,978.41
2018-04-29T11:06:44.889Z,978.22
2018-04-29T11:07:45.097Z,978.28
2018-04-29T11:08:45.307Z,978.10
2018-04-29T11:09:45.511Z,978.09
2018-04-29T11:10:45.732Z,978.09
2018-04-29T11:11:46.007Z,978.11
2018-04-29T11:12:46.146Z,978.19
2018-04-29T11:13:46.364Z,978.01
2018-04-29T11:14:46.557Z,977.99
2018-04-29T11:15:46.758Z,978.03
2018-04-29T11:16:46.966Z,977.93
2018-04-29T11:17:47.192Z,977.90
2018-04-29T11:18:47.395Z,977.97
2018-04-29T11:19:47.616Z,977.93
2018-04-29T11:20:47.846Z,977.92
2018-04-29T11:21:48.028Z,977.90
2018-04-29T11:22:48.223Z,977.87
2018-04-29T11:23:48.424Z,977.92
2018-04-29T11:24:48.619Z,977.94
2018-04-29T11:25:48.806Z,977.95
2018-04-29T11:26:49.015Z,977.89
2018-04-29T11:27:49.222Z,977.79
2018-04-29T11:28:49.441Z,977.74
2018-04-29T11:29:49.646Z,977.69
2018-04-29T11:30:49.885Z,977.70
2018-04-29T11:31:50.106Z,977.74
2018-04-29T11:32:50.317Z,977.65
2018-04-29T11:33:50.559Z,977.71
2018-04-29T11:34:50.754Z,977.54
2018-04-29T11:35:50.951Z,977.51
2018-04-29T11:36:51.161Z,977.50
2018-04-29T11:37:51.376Z,977.51
2018-04-29T11:38:51.584Z,977.51
2018-04-29T11:39:51.811Z,977.49
2018-04-29T11:40:52.021Z,977.48
2018-04-29T11:41:52.219Z,977.35
2018-04-29T11:42:52.423Z,977.30
2018-04-29T11:43:52.638Z,977.29
2018-04-29T11:44:52.838Z,977.23
2018-04-29T11:45:53.111Z,977.19
2018-04-29T11:46:53.240Z,977.20
2018-04-29T11:47:53.433Z,977.19
2018-04-29T11:48:53.643Z,977.11
2018-04-29T11:49:53.820Z,977.06
2018-04-29T11:50:54.025Z,977.03
2018-04-29T11:51:54.232Z,976.98
2018-04-29T11:52:54.432Z,976.94
2018-04-29T11:53:54.691Z,976.90
2018-04-29T11:54:54.887Z,976.87
2018-04-29T11:57:26.721Z,976.88
2018-04-29T11:58:26.911Z,976.84
2018-04-29T11:59:27.110Z,976.82
2018-04-29T12:00:27.318Z,976.81
2018-04-29T12:01:27.524Z,976.75
2018-04-29T12:02:27.726Z,976.76
2018-04-29T12:03:27.922Z,976.75
2018-04-29T12:04:28.131Z,976.71
2018-04-29T12:05:28.339Z,976.75
2018-04-29T12:06:28.531Z,976.70
2018-04-29T12:07:28.723Z,976.68
2018-04-29T12:08:28.914Z,976.68
2018-04-29T12:09:29.124Z,976.62
2018-04-29T12:10:29.313Z,976.55
2018-04-29T12:11:29.536Z,976.64
2018-04-29T12:12:29.725Z,976.65
2018-04-29T12:13:29.928Z,976.60
2018-04-29T12:14:30.131Z,976.59
2018-04-29T12:15:30.332Z,976.58
2018-04-29T12:16:30.563Z,976.53
2018-04-29T12:17:30.742Z,976.48
2018-04-29T12:18:30.935Z,976.56
2018-04-29T12:19:31.127Z,976.46
2018-04-29T12:20:31.327Z,976.52
2018-04-29T12:21:31.532Z,976.44
2018-04-29T12:22:31.721Z,976.42
2018-04-29T12:23:31.926Z,976.44
2018-04-29T12:24:32.215Z,976.37
2018-04-29T12:25:32.321Z,976.41
2018-04-29T12:26:32.533Z,976.38
2018-04-29T12:27:32.756Z,976.35
2018-04-29T12:28:32.962Z,976.32
2018-04-29T12:29:33.170Z,976.32
2018-04-29T12:30:33.367Z,976.35
2018-04-29T12:31:33.578Z,976.31
2018-04-29T12:32:33.793Z,976.28
2018-04-29T12:33:34.029Z,976.25
2018-04-29T12:34:34.242Z,976.26
2018-04-29T12:35:34.429Z,976.22
2018-04-29T12:36:34.634Z,976.25
2018-04-29T12:37:34.825Z,976.22
2018-04-29T12:38:35.021Z,976.23
2018-04-29T12:39:35.231Z,976.19
2018-04-29T12:40:35.446Z,976.20
2018-04-29T12:41:35.645Z,976.20
2018-04-29T12:42:35.840Z,976.17
2018-04-29T12:43:36.053Z,976.16
2018-04-29T12:44:36.245Z,976.20
2018-04-29T12:45:36.455Z,976.16
2018-04-29T12:46:36.726Z,976.14
2018-04-29T12:47:36.895Z,976.07
2018-04-29T12:48:37.110Z,976.12
2018-04-29T12:49:37.312Z,976.10
2018-04-29T12:50:37.493Z,976.15
2018-04-29T12:51:37.697Z,976.06
2018-04-29T12:52:37.905Z,976.03
2018-04-29T12:53:38.117Z,976.03